Longbranch, Washington
Current Conditions -  °F | °C
As of 10:41 PM on Tuesday 25 Nov 2014 (Local Time) from KTIW Reporting Station
Light Rain Light Rain  
Wind Chill: 55°   Ceiling: 2800
Heat Index: 55°   Visibility: 4mi
Dew Point: 53°   Wind: 15mph
Humidity: 93%   Direction: 200°SSW
Pressure: 30.19"   Gusts: 25mph
Location:  47.21°N, 122.76°W
Report Text: KTIW 260641Z AUTO 20013G22KT 4SM -RA BR FEW006 BKN028 OVC038 13/12 A3019 RMK AO2 P0001 T01280117
Loading
Personal Weather Stations






























Interactive Weather Map New forecast layout! Learn more

10-Day Weather Forecast

Advertisements
Track Severe Weather on mobile